sensor_id;sensor_type;location;lat;lon;timestamp;P1;durP1;ratioP1;P2;durP2;ratioP2
29240;SDS011;16268;49.880;8.648;2023-03-01T00:01:23;16.83;;;10.30;;
29240;SDS011;16268;49.880;8.648;2023-03-01T00:03:51;17.52;;;9.85;;
29240;SDS011;16268;49.880;8.648;2023-03-01T00:06:17;15.43;;;9.60;;
29240;SDS011;16268;49.880;8.648;2023-03-01T00:08:43;14.53;;;9.60;;
29240;SDS011;16268;49.880;8.648;2023-03-01T00:11:16;16.67;;;10.03;;
29240;SDS011;16268;49.880;8.648;2023-03-01T00:13:53;18.02;;;10.15;;
29240;SDS011;16268;49.880;8.648;2023-03-01T00:16:22;15.90;;;9.75;;
29240;SDS011;16268;49.880;8.648;2023-03-01T00:18:50;17.98;;;10.70;;
29240;SDS011;16268;49.880;8.648;2023-03-01T00:21:16;16.97;;;10.83;;
29240;SDS011;16268;49.880;8.648;2023-03-01T00:23:42;18.35;;;11.13;;
29240;SDS011;16268;49.880;8.648;2023-03-01T00:26:09;17.38;;;10.60;;
29240;SDS011;16268;49.880;8.648;2023-03-01T00:28:37;17.70;;;11.13;;
29240;SDS011;16268;49.880;8.648;2023-03-01T00:31:12;18.80;;;11.15;;
29240;SDS011;16268;49.880;8.648;2023-03-01T00:33:39;16.63;;;10.00;;
29240;SDS011;16268;49.880;8.648;2023-03-01T00:36:05;16.97;;;10.13;;
29240;SDS011;16268;49.880;8.648;2023-03-01T00:38:34;18.33;;;10.75;;
29240;SDS011;16268;49.880;8.648;2023-03-01T00:41:04;16.13;;;10.07;;
29240;SDS011;16268;49.880;8.648;2023-03-01T00:43:31;19.42;;;10.82;;
29240;SDS011;16268;49.880;8.648;2023-03-01T00:46:01;17.40;;;10.17;;
29240;SDS011;16268;49.880;8.648;2023-03-01T00:50:56;17.97;;;10.20;;
29240;SDS011;16268;49.880;8.648;2023-03-01T00:53:22;19.63;;;10.77;;
29240;SDS011;16268;49.880;8.648;2023-03-01T00:55:47;19.50;;;11.03;;
29240;SDS011;16268;49.880;8.648;2023-03-01T00:58:13;18.83;;;10.97;;
29240;SDS011;16268;49.880;8.648;2023-03-01T01:00:38;18.33;;;11.32;;
29240;SDS011;16268;49.880;8.648;2023-03-01T01:03:04;18.00;;;11.47;;
29240;SDS011;16268;49.880;8.648;2023-03-01T01:05:29;17.58;;;10.57;;
29240;SDS011;16268;49.880;8.648;2023-03-01T01:07:55;18.33;;;11.47;;
29240;SDS011;16268;49.880;8.648;2023-03-01T01:10:21;17.27;;;11.60;;
29240;SDS011;16268;49.880;8.648;2023-03-01T01:12:46;21.80;;;11.43;;
29240;SDS011;16268;49.880;8.648;2023-03-01T01:15:12;21.35;;;11.77;;
29240;SDS011;16268;49.880;8.648;2023-03-01T01:17:39;18.10;;;11.30;;
29240;SDS011;16268;49.880;8.648;2023-03-01T01:20:08;21.00;;;11.80;;
29240;SDS011;16268;49.880;8.648;2023-03-01T01:22:34;19.25;;;10.70;;
29240;SDS011;16268;49.880;8.648;2023-03-01T01:24:59;18.20;;;10.90;;
29240;SDS011;16268;49.880;8.648;2023-03-01T01:27:25;20.20;;;11.17;;
29240;SDS011;16268;49.880;8.648;2023-03-01T01:29:52;20.30;;;10.43;;
29240;SDS011;16268;49.880;8.648;2023-03-01T01:32:18;19.20;;;11.63;;
29240;SDS011;16268;49.880;8.648;2023-03-01T01:34:43;18.00;;;11.03;;
29240;SDS011;16268;49.880;8.648;2023-03-01T01:37:09;19.10;;;11.77;;
29240;SDS011;16268;49.880;8.648;2023-03-01T01:39:34;17.97;;;10.77;;
29240;SDS011;16268;49.880;8.648;2023-03-01T01:42:00;19.03;;;11.53;;
29240;SDS011;16268;49.880;8.648;2023-03-01T01:44:27;19.00;;;10.37;;
29240;SDS011;16268;49.880;8.648;2023-03-01T01:46:58;19.45;;;10.75;;
29240;SDS011;16268;49.880;8.648;2023-03-01T01:49:39;19.17;;;11.50;;
29240;SDS011;16268;49.880;8.648;2023-03-01T01:52:27;19.87;;;11.73;;
29240;SDS011;16268;49.880;8.648;2023-03-01T01:55:08;16.83;;;11.20;;
29240;SDS011;16268;49.880;8.648;2023-03-01T01:57:38;18.33;;;10.88;;
29240;SDS011;16268;49.880;8.648;2023-03-01T02:00:16;18.38;;;11.95;;
29240;SDS011;16268;49.880;8.648;2023-03-01T02:02:45;18.25;;;12.07;;
29240;SDS011;16268;49.880;8.648;2023-03-01T02:07:44;18.37;;;11.90;;
29240;SDS011;16268;49.880;8.648;2023-03-01T02:10:11;19.10;;;11.67;;
29240;SDS011;16268;49.880;8.648;2023-03-01T02:12:36;20.73;;;11.83;;
29240;SDS011;16268;49.880;8.648;2023-03-01T02:15:03;20.90;;;12.43;;
29240;SDS011;16268;49.880;8.648;2023-03-01T02:17:30;22.00;;;12.77;;
29240;SDS011;16268;49.880;8.648;2023-03-01T02:22:31;22.60;;;13.17;;
29240;SDS011;16268;49.880;8.648;2023-03-01T02:25:03;20.17;;;12.17;;
29240;SDS011;16268;49.880;8.648;2023-03-01T02:27:35;18.60;;;11.83;;
29240;SDS011;16268;49.880;8.648;2023-03-01T02:30:05;22.67;;;12.80;;
29240;SDS011;16268;49.880;8.648;2023-03-01T02:32:32;23.93;;;12.47;;
29240;SDS011;16268;49.880;8.648;2023-03-01T02:34:59;19.40;;;12.37;;
29240;SDS011;16268;49.880;8.648;2023-03-01T02:37:24;21.37;;;12.17;;
29240;SDS011;16268;49.880;8.648;2023-03-01T02:39:53;20.60;;;11.83;;
29240;SDS011;16268;49.880;8.648;2023-03-01T02:42:26;22.57;;;13.17;;
29240;SDS011;16268;49.880;8.648;2023-03-01T02:44:55;21.53;;;12.17;;
29240;SDS011;16268;49.880;8.648;2023-03-01T02:47:21;21.60;;;12.60;;
29240;SDS011;16268;49.880;8.648;2023-03-01T02:49:47;20.20;;;12.63;;
29240;SDS011;16268;49.880;8.648;2023-03-01T02:55:09;22.20;;;12.65;;
29240;SDS011;16268;49.880;8.648;2023-03-01T02:57:38;22.30;;;12.10;;
29240;SDS011;16268;49.880;8.648;2023-03-01T03:00:07;17.63;;;11.25;;
29240;SDS011;16268;49.880;8.648;2023-03-01T03:02:34;20.52;;;12.38;;
29240;SDS011;16268;49.880;8.648;2023-03-01T03:05:08;20.77;;;12.03;;
29240;SDS011;16268;49.880;8.648;2023-03-01T03:07:37;20.17;;;12.23;;
29240;SDS011;16268;49.880;8.648;2023-03-01T03:12:32;21.47;;;12.07;;
29240;SDS011;16268;49.880;8.648;2023-03-01T03:14:58;19.43;;;12.13;;
29240;SDS011;16268;49.880;8.648;2023-03-01T03:17:23;21.43;;;12.93;;
29240;SDS011;16268;49.880;8.648;2023-03-01T03:19:49;25.83;;;14.20;;
29240;SDS011;16268;49.880;8.648;2023-03-01T03:22:14;22.97;;;13.23;;
29240;SDS011;16268;49.880;8.648;2023-03-01T03:24:40;20.27;;;11.88;;
29240;SDS011;16268;49.880;8.648;2023-03-01T03:27:06;20.60;;;12.57;;
29240;SDS011;16268;49.880;8.648;2023-03-01T03:29:32;20.73;;;12.47;;
29240;SDS011;16268;49.880;8.648;2023-03-01T03:31:57;25.35;;;13.38;;
29240;SDS011;16268;49.880;8.648;2023-03-01T03:34:23;21.47;;;12.57;;
29240;SDS011;16268;49.880;8.648;2023-03-01T03:36:52;22.58;;;13.48;;
29240;SDS011;16268;49.880;8.648;2023-03-01T03:39:21;21.73;;;13.37;;
29240;SDS011;16268;49.880;8.648;2023-03-01T03:41:48;24.20;;;13.47;;
29240;SDS011;16268;49.880;8.648;2023-03-01T03:44:13;21.80;;;13.47;;
29240;SDS011;16268;49.880;8.648;2023-03-01T03:46:39;22.93;;;13.33;;
29240;SDS011;16268;49.880;8.648;2023-03-01T03:49:04;23.63;;;13.27;;
29240;SDS011;16268;49.880;8.648;2023-03-01T03:51:30;21.07;;;13.30;;
29240;SDS011;16268;49.880;8.648;2023-03-01T03:53:56;24.17;;;13.40;;
29240;SDS011;16268;49.880;8.648;2023-03-01T03:56:21;20.80;;;12.20;;
29240;SDS011;16268;49.880;8.648;2023-03-01T03:58:50;23.25;;;12.50;;
29240;SDS011;16268;49.880;8.648;2023-03-01T04:01:19;21.88;;;13.50;;
29240;SDS011;16268;49.880;8.648;2023-03-01T04:03:45;22.53;;;13.70;;
29240;SDS011;16268;49.880;8.648;2023-03-01T04:06:12;22.20;;;13.60;;
29240;SDS011;16268;49.880;8.648;2023-03-01T04:08:38;22.93;;;14.03;;
29240;SDS011;16268;49.880;8.648;2023-03-01T04:11:04;26.73;;;14.57;;
29240;SDS011;16268;49.880;8.648;2023-03-01T04:13:49;22.43;;;13.40;;
29240;SDS011;16268;49.880;8.648;2023-03-01T04:16:15;23.20;;;13.47;;
29240;SDS011;16268;49.880;8.648;2023-03-01T04:18:41;23.83;;;13.47;;
29240;SDS011;16268;49.880;8.648;2023-03-01T04:21:07;22.87;;;13.77;;
29240;SDS011;16268;49.880;8.648;2023-03-01T04:23:32;22.47;;;13.97;;
29240;SDS011;16268;49.880;8.648;2023-03-01T04:25:58;23.40;;;13.50;;
29240;SDS011;16268;49.880;8.648;2023-03-01T04:31:08;24.95;;;13.93;;
29240;SDS011;16268;49.880;8.648;2023-03-01T04:33:45;22.67;;;13.93;;
29240;SDS011;16268;49.880;8.648;2023-03-01T04:36:12;25.67;;;14.43;;
29240;SDS011;16268;49.880;8.648;2023-03-01T04:38:39;26.20;;;14.02;;
29240;SDS011;16268;49.880;8.648;2023-03-01T04:41:06;25.57;;;14.57;;
29240;SDS011;16268;49.880;8.648;2023-03-01T04:43:34;22.93;;;13.83;;
29240;SDS011;16268;49.880;8.648;2023-03-01T04:46:07;23.23;;;14.27;;
29240;SDS011;16268;49.880;8.648;2023-03-01T04:48:34;25.47;;;14.80;;
29240;SDS011;16268;49.880;8.648;2023-03-01T04:51:01;24.13;;;14.40;;
29240;SDS011;16268;49.880;8.648;2023-03-01T04:53:27;23.63;;;14.47;;
29240;SDS011;16268;49.880;8.648;2023-03-01T04:55:54;24.10;;;14.30;;
29240;SDS011;16268;49.880;8.648;2023-03-01T04:58:21;23.23;;;13.77;;
29240;SDS011;16268;49.880;8.648;2023-03-01T05:00:51;23.57;;;14.33;;
29240;SDS011;16268;49.880;8.648;2023-03-01T05:03:17;21.63;;;13.90;;
29240;SDS011;16268;49.880;8.648;2023-03-01T05:05:43;26.90;;;14.17;;
29240;SDS011;16268;49.880;8.648;2023-03-01T05:08:10;23.27;;;14.23;;
29240;SDS011;16268;49.880;8.648;2023-03-01T05:10:46;22.13;;;14.23;;
29240;SDS011;16268;49.880;8.648;2023-03-01T05:13:17;21.50;;;13.60;;
29240;SDS011;16268;49.880;8.648;2023-03-01T05:15:59;27.85;;;15.18;;
29240;SDS011;16268;49.880;8.648;2023-03-01T05:18:27;22.80;;;13.95;;
29240;SDS011;16268;49.880;8.648;2023-03-01T05:21:02;22.35;;;14.55;;
29240;SDS011;16268;49.880;8.648;2023-03-01T05:23:33;22.70;;;14.30;;
29240;SDS011;16268;49.880;8.648;2023-03-01T05:26:00;25.90;;;14.53;;
29240;SDS011;16268;49.880;8.648;2023-03-01T05:28:28;21.10;;;13.63;;
29240;SDS011;16268;49.880;8.648;2023-03-01T05:30:55;23.43;;;14.37;;
29240;SDS011;16268;49.880;8.648;2023-03-01T05:33:21;24.63;;;14.50;;
29240;SDS011;16268;49.880;8.648;2023-03-01T05:35:47;24.40;;;14.57;;
29240;SDS011;16268;49.880;8.648;2023-03-01T05:38:14;24.00;;;14.40;;
29240;SDS011;16268;49.880;8.648;2023-03-01T05:40:44;26.80;;;15.07;;
29240;SDS011;16268;49.880;8.648;2023-03-01T05:43:11;24.50;;;14.60;;
29240;SDS011;16268;49.880;8.648;2023-03-01T05:45:38;25.13;;;14.90;;
29240;SDS011;16268;49.880;8.648;2023-03-01T05:48:05;28.70;;;15.20;;
29240;SDS011;16268;49.880;8.648;2023-03-01T05:50:33;23.30;;;13.33;;
29240;SDS011;16268;49.880;8.648;2023-03-01T05:53:02;26.40;;;14.53;;
29240;SDS011;16268;49.880;8.648;2023-03-01T05:55:32;24.73;;;13.77;;
29240;SDS011;16268;49.880;8.648;2023-03-01T05:57:59;25.47;;;14.60;;
29240;SDS011;16268;49.880;8.648;2023-03-01T06:00:26;26.87;;;15.43;;
29240;SDS011;16268;49.880;8.648;2023-03-01T06:02:53;23.70;;;14.63;;
29240;SDS011;16268;49.880;8.648;2023-03-01T06:05:19;22.67;;;14.63;;
29240;SDS011;16268;49.880;8.648;2023-03-01T06:07:45;22.47;;;14.00;;
29240;SDS011;16268;49.880;8.648;2023-03-01T06:10:11;24.90;;;15.20;;
29240;SDS011;16268;49.880;8.648;2023-03-01T06:12:39;25.77;;;15.03;;
29240;SDS011;16268;49.880;8.648;2023-03-01T06:15:06;28.60;;;15.03;;
29240;SDS011;16268;49.880;8.648;2023-03-01T06:17:36;25.58;;;14.80;;
29240;SDS011;16268;49.880;8.648;2023-03-01T06:20:07;25.00;;;14.40;;
29240;SDS011;16268;49.880;8.648;2023-03-01T06:22:36;24.63;;;14.50;;
29240;SDS011;16268;49.880;8.648;2023-03-01T06:25:02;22.20;;;13.93;;
29240;SDS011;16268;49.880;8.648;2023-03-01T06:27:28;23.23;;;14.53;;
29240;SDS011;16268;49.880;8.648;2023-03-01T06:29:54;24.93;;;14.43;;
29240;SDS011;16268;49.880;8.648;2023-03-01T06:32:20;26.50;;;15.10;;
29240;SDS011;16268;49.880;8.648;2023-03-01T06:34:46;24.53;;;15.00;;
29240;SDS011;16268;49.880;8.648;2023-03-01T06:37:11;23.57;;;14.97;;
29240;SDS011;16268;49.880;8.648;2023-03-01T06:39:37;23.60;;;15.00;;
29240;SDS011;16268;49.880;8.648;2023-03-01T06:42:02;24.43;;;14.67;;
29240;SDS011;16268;49.880;8.648;2023-03-01T06:44:28;27.90;;;15.18;;
29240;SDS011;16268;49.880;8.648;2023-03-01T06:46:54;22.50;;;14.48;;
29240;SDS011;16268;49.880;8.648;2023-03-01T06:49:20;22.27;;;15.00;;
29240;SDS011;16268;49.880;8.648;2023-03-01T06:51:46;23.43;;;14.30;;
29240;SDS011;16268;49.880;8.648;2023-03-01T06:54:11;26.10;;;15.17;;
29240;SDS011;16268;49.880;8.648;2023-03-01T06:56:37;25.15;;;14.40;;
29240;SDS011;16268;49.880;8.648;2023-03-01T06:59:03;23.90;;;14.90;;
29240;SDS011;16268;49.880;8.648;2023-03-01T07:01:29;24.77;;;14.85;;
29240;SDS011;16268;49.880;8.648;2023-03-01T07:03:55;23.58;;;14.35;;
29240;SDS011;16268;49.880;8.648;2023-03-01T07:06:21;27.10;;;14.82;;
29240;SDS011;16268;49.880;8.648;2023-03-01T07:08:46;22.80;;;14.50;;
29240;SDS011;16268;49.880;8.648;2023-03-01T07:11:12;26.60;;;14.82;;
29240;SDS011;16268;49.880;8.648;2023-03-01T07:13:38;23.25;;;14.38;;
29240;SDS011;16268;49.880;8.648;2023-03-01T07:16:04;25.52;;;14.80;;
29240;SDS011;16268;49.880;8.648;2023-03-01T07:18:30;24.10;;;14.05;;
29240;SDS011;16268;49.880;8.648;2023-03-01T07:20:55;26.27;;;14.63;;
29240;SDS011;16268;49.880;8.648;2023-03-01T07:23:21;25.15;;;15.23;;
29240;SDS011;16268;49.880;8.648;2023-03-01T07:25:53;23.17;;;14.25;;
29240;SDS011;16268;49.880;8.648;2023-03-01T07:28:19;26.10;;;14.52;;
29240;SDS011;16268;49.880;8.648;2023-03-01T07:30:45;24.33;;;14.60;;
29240;SDS011;16268;49.880;8.648;2023-03-01T07:33:11;24.05;;;14.88;;
29240;SDS011;16268;49.880;8.648;2023-03-01T07:35:36;23.27;;;14.50;;
29240;SDS011;16268;49.880;8.648;2023-03-01T07:38:02;23.95;;;15.18;;
29240;SDS011;16268;49.880;8.648;2023-03-01T07:40:27;25.50;;;15.27;;
29240;SDS011;16268;49.880;8.648;2023-03-01T07:42:56;22.25;;;14.77;;
29240;SDS011;16268;49.880;8.648;2023-03-01T07:45:22;23.15;;;13.57;;
29240;SDS011;16268;49.880;8.648;2023-03-01T07:47:50;23.17;;;14.40;;
29240;SDS011;16268;49.880;8.648;2023-03-01T07:50:16;22.90;;;14.25;;
29240;SDS011;16268;49.880;8.648;2023-03-01T07:52:44;23.45;;;14.13;;
29240;SDS011;16268;49.880;8.648;2023-03-01T07:55:11;26.33;;;14.77;;
29240;SDS011;16268;49.880;8.648;2023-03-01T08:13:29;19.90;;;13.25;;
29240;SDS011;16268;49.880;8.648;2023-03-01T08:16:26;21.63;;;13.60;;
29240;SDS011;16268;49.880;8.648;2023-03-01T08:18:51;21.77;;;13.48;;
29240;SDS011;16268;49.880;8.648;2023-03-01T08:21:17;22.70;;;13.65;;
29240;SDS011;16268;49.880;8.648;2023-03-01T08:23:43;21.95;;;13.45;;
29240;SDS011;16268;49.880;8.648;2023-03-01T08:26:16;24.00;;;13.88;;
29240;SDS011;16268;49.880;8.648;2023-03-01T08:28:43;22.23;;;12.88;;
29240;SDS011;16268;49.880;8.648;2023-03-01T08:31:16;21.90;;;12.98;;
29240;SDS011;16268;49.880;8.648;2023-03-01T08:33:44;21.00;;;12.98;;
29240;SDS011;16268;49.880;8.648;2023-03-01T08:36:15;24.17;;;13.27;;
29240;SDS011;16268;49.880;8.648;2023-03-01T08:38:41;21.30;;;13.45;;
29240;SDS011;16268;49.880;8.648;2023-03-01T08:41:07;20.17;;;12.90;;
29240;SDS011;16268;49.880;8.648;2023-03-01T08:43:33;23.85;;;12.82;;
29240;SDS011;16268;49.880;8.648;2023-03-01T08:45:58;22.20;;;13.07;;
29240;SDS011;16268;49.880;8.648;2023-03-01T08:48:24;21.27;;;12.90;;
29240;SDS011;16268;49.880;8.648;2023-03-01T08:50:50;20.52;;;13.18;;
29240;SDS011;16268;49.880;8.648;2023-03-01T08:53:16;20.48;;;13.45;;
29240;SDS011;16268;49.880;8.648;2023-03-01T08:55:43;21.30;;;13.43;;
29240;SDS011;16268;49.880;8.648;2023-03-01T08:58:09;19.15;;;12.45;;
29240;SDS011;16268;49.880;8.648;2023-03-01T09:00:34;20.40;;;13.25;;
29240;SDS011;16268;49.880;8.648;2023-03-01T09:03:00;21.67;;;12.48;;
29240;SDS011;16268;49.880;8.648;2023-03-01T09:05:26;19.02;;;13.00;;
29240;SDS011;16268;49.880;8.648;2023-03-01T09:07:51;19.65;;;12.55;;
29240;SDS011;16268;49.880;8.648;2023-03-01T09:10:17;21.65;;;13.32;;
29240;SDS011;16268;49.880;8.648;2023-03-01T09:12:43;20.23;;;12.38;;
29240;SDS011;16268;49.880;8.648;2023-03-01T09:15:09;20.60;;;13.25;;
29240;SDS011;16268;49.880;8.648;2023-03-01T09:17:35;19.02;;;12.18;;
29240;SDS011;16268;49.880;8.648;2023-03-01T09:20:00;22.88;;;13.32;;
29240;SDS011;16268;49.880;8.648;2023-03-01T09:22:26;21.45;;;12.82;;
29240;SDS011;16268;49.880;8.648;2023-03-01T09:24:51;17.00;;;12.23;;
29240;SDS011;16268;49.880;8.648;2023-03-01T09:27:17;21.80;;;13.18;;
29240;SDS011;16268;49.880;8.648;2023-03-01T09:29:44;18.25;;;12.73;;
29240;SDS011;16268;49.880;8.648;2023-03-01T09:32:09;19.30;;;12.00;;
29240;SDS011;16268;49.880;8.648;2023-03-01T09:34:37;18.35;;;12.48;;
29240;SDS011;16268;49.880;8.648;2023-03-01T09:37:22;19.90;;;13.02;;
29240;SDS011;16268;49.880;8.648;2023-03-01T09:39:47;21.00;;;12.73;;
29240;SDS011;16268;49.880;8.648;2023-03-01T09:42:13;19.98;;;13.18;;
29240;SDS011;16268;49.880;8.648;2023-03-01T09:44:43;21.08;;;12.77;;
29240;SDS011;16268;49.880;8.648;2023-03-01T09:47:18;22.67;;;13.60;;
29240;SDS011;16268;49.880;8.648;2023-03-01T09:49:57;18.83;;;13.05;;
29240;SDS011;16268;49.880;8.648;2023-03-01T09:52:34;21.98;;;13.13;;
29240;SDS011;16268;49.880;8.648;2023-03-01T09:55:01;19.92;;;13.35;;
29240;SDS011;16268;49.880;8.648;2023-03-01T09:57:36;21.02;;;12.65;;
29240;SDS011;16268;49.880;8.648;2023-03-01T10:00:20;19.67;;;12.82;;
29240;SDS011;16268;49.880;8.648;2023-03-01T10:05:47;19.90;;;12.82;;
29240;SDS011;16268;49.880;8.648;2023-03-01T10:08:31;22.90;;;12.60;;
29240;SDS011;16268;49.880;8.648;2023-03-01T10:11:19;22.33;;;13.00;;
29240;SDS011;16268;49.880;8.648;2023-03-01T10:17:07;19.42;;;12.68;;
29240;SDS011;16268;49.880;8.648;2023-03-01T10:19:47;19.60;;;12.95;;
29240;SDS011;16268;49.880;8.648;2023-03-01T10:22:16;20.30;;;13.30;;
29240;SDS011;16268;49.880;8.648;2023-03-01T10:24:46;22.50;;;13.35;;
29240;SDS011;16268;49.880;8.648;2023-03-01T10:27:26;20.02;;;12.68;;
29240;SDS011;16268;49.880;8.648;2023-03-01T10:30:04;23.08;;;12.65;;
29240;SDS011;16268;49.880;8.648;2023-03-01T10:32:51;21.23;;;13.65;;
29240;SDS011;16268;49.880;8.648;2023-03-01T10:35:19;21.75;;;13.80;;
29240;SDS011;16268;49.880;8.648;2023-03-01T10:37:56;21.92;;;13.98;;
29240;SDS011;16268;49.880;8.648;2023-03-01T10:40:27;21.13;;;14.07;;
29240;SDS011;16268;49.880;8.648;2023-03-01T10:42:53;22.95;;;14.70;;
29240;SDS011;16268;49.880;8.648;2023-03-01T10:45:32;21.20;;;14.07;;
29240;SDS011;16268;49.880;8.648;2023-03-01T10:48:03;22.65;;;13.48;;
29240;SDS011;16268;49.880;8.648;2023-03-01T10:50:45;21.55;;;13.80;;
29240;SDS011;16268;49.880;8.648;2023-03-01T10:53:55;21.75;;;13.20;;
29240;SDS011;16268;49.880;8.648;2023-03-01T10:56:09;20.35;;;13.60;;
29240;SDS011;16268;49.880;8.648;2023-03-01T10:58:38;20.13;;;12.65;;
29240;SDS011;16268;49.880;8.648;2023-03-01T11:03:41;19.80;;;13.23;;
29240;SDS011;16268;49.880;8.648;2023-03-01T11:08:42;22.25;;;13.20;;
29240;SDS011;16268;49.880;8.648;2023-03-01T11:13:52;18.92;;;13.02;;
29240;SDS011;16268;49.880;8.648;2023-03-01T11:16:31;20.38;;;12.50;;
29240;SDS011;16268;49.880;8.648;2023-03-01T11:24:20;16.40;;;11.10;;
29240;SDS011;16268;49.880;8.648;2023-03-01T11:26:55;18.50;;;12.18;;
29240;SDS011;16268;49.880;8.648;2023-03-01T11:29:43;21.35;;;12.38;;
29240;SDS011;16268;49.880;8.648;2023-03-01T11:32:11;19.92;;;12.18;;
29240;SDS011;16268;49.880;8.648;2023-03-01T11:34:51;17.25;;;11.48;;
29240;SDS011;16268;49.880;8.648;2023-03-01T11:48:43;17.38;;;11.40;;
29240;SDS011;16268;49.880;8.648;2023-03-01T11:51:18;17.92;;;11.27;;
29240;SDS011;16268;49.880;8.648;2023-03-01T11:57:34;17.33;;;11.85;;
29240;SDS011;16268;49.880;8.648;2023-03-01T12:24:37;20.05;;;11.10;;
29240;SDS011;16268;49.880;8.648;2023-03-01T12:27:23;14.48;;;9.35;;
29240;SDS011;16268;49.880;8.648;2023-03-01T12:32:46;15.43;;;10.07;;
29240;SDS011;16268;49.880;8.648;2023-03-01T12:38:46;17.70;;;10.80;;
29240;SDS011;16268;49.880;8.648;2023-03-01T12:49:16;13.70;;;9.07;;
29240;SDS011;16268;49.880;8.648;2023-03-01T12:52:03;16.20;;;9.95;;
29240;SDS011;16268;49.880;8.648;2023-03-01T12:54:46;15.45;;;9.57;;
29240;SDS011;16268;49.880;8.648;2023-03-01T12:57:26;14.00;;;9.20;;
29240;SDS011;16268;49.880;8.648;2023-03-01T13:00:15;14.27;;;9.48;;
29240;SDS011;16268;49.880;8.648;2023-03-01T13:02:48;16.05;;;9.48;;
29240;SDS011;16268;49.880;8.648;2023-03-01T13:08:31;15.60;;;9.57;;
29240;SDS011;16268;49.880;8.648;2023-03-01T13:11:11;13.67;;;8.53;;
29240;SDS011;16268;49.880;8.648;2023-03-01T13:13:45;13.93;;;8.05;;
29240;SDS011;16268;49.880;8.648;2023-03-01T13:16:21;13.65;;;8.55;;
29240;SDS011;16268;49.880;8.648;2023-03-01T13:19:05;14.55;;;9.70;;
29240;SDS011;16268;49.880;8.648;2023-03-01T13:21:33;14.70;;;9.57;;
29240;SDS011;16268;49.880;8.648;2023-03-01T13:23:59;15.35;;;9.70;;
29240;SDS011;16268;49.880;8.648;2023-03-01T13:26:24;13.40;;;9.60;;
29240;SDS011;16268;49.880;8.648;2023-03-01T13:28:51;17.42;;;10.43;;
29240;SDS011;16268;49.880;8.648;2023-03-01T13:33:48;15.77;;;9.80;;
29240;SDS011;16268;49.880;8.648;2023-03-01T13:36:44;17.13;;;9.52;;
29240;SDS011;16268;49.880;8.648;2023-03-01T13:41:53;13.43;;;9.63;;
29240;SDS011;16268;49.880;8.648;2023-03-01T13:47:36;14.38;;;9.20;;
29240;SDS011;16268;49.880;8.648;2023-03-01T13:49:43;16.45;;;9.43;;
29240;SDS011;16268;49.880;8.648;2023-03-01T13:52:22;15.00;;;9.27;;
29240;SDS011;16268;49.880;8.648;2023-03-01T13:54:53;14.15;;;8.77;;
29240;SDS011;16268;49.880;8.648;2023-03-01T13:59:50;14.50;;;9.00;;
29240;SDS011;16268;49.880;8.648;2023-03-01T14:02:15;12.52;;;8.00;;
29240;SDS011;16268;49.880;8.648;2023-03-01T14:04:41;13.23;;;8.45;;
29240;SDS011;16268;49.880;8.648;2023-03-01T14:07:11;14.20;;;8.38;;
29240;SDS011;16268;49.880;8.648;2023-03-01T14:09:39;15.52;;;8.70;;
29240;SDS011;16268;49.880;8.648;2023-03-01T14:14:44;12.00;;;8.00;;
29240;SDS011;16268;49.880;8.648;2023-03-01T14:17:20;14.35;;;8.70;;
29240;SDS011;16268;49.880;8.648;2023-03-01T14:20:08;14.23;;;8.55;;
29240;SDS011;16268;49.880;8.648;2023-03-01T14:22:37;12.85;;;8.27;;
29240;SDS011;16268;49.880;8.648;2023-03-01T14:25:24;14.63;;;8.48;;
29240;SDS011;16268;49.880;8.648;2023-03-01T14:27:57;14.88;;;8.80;;
29240;SDS011;16268;49.880;8.648;2023-03-01T14:30:26;14.93;;;9.07;;
29240;SDS011;16268;49.880;8.648;2023-03-01T14:32:57;12.68;;;8.35;;
29240;SDS011;16268;49.880;8.648;2023-03-01T14:35:25;12.18;;;8.02;;
29240;SDS011;16268;49.880;8.648;2023-03-01T14:37:53;13.07;;;7.78;;
29240;SDS011;16268;49.880;8.648;2023-03-01T14:40:27;13.45;;;8.63;;
29240;SDS011;16268;49.880;8.648;2023-03-01T14:42:53;14.27;;;7.97;;
29240;SDS011;16268;49.880;8.648;2023-03-01T14:45:21;11.80;;;7.78;;
29240;SDS011;16268;49.880;8.648;2023-03-01T14:47:49;13.90;;;8.63;;
29240;SDS011;16268;49.880;8.648;2023-03-01T14:50:21;12.73;;;8.70;;
29240;SDS011;16268;49.880;8.648;2023-03-01T14:52:50;14.77;;;8.85;;
29240;SDS011;16268;49.880;8.648;2023-03-01T14:55:19;14.60;;;8.70;;
29240;SDS011;16268;49.880;8.648;2023-03-01T14:57:47;14.20;;;9.00;;
29240;SDS011;16268;49.880;8.648;2023-03-01T15:00:16;14.15;;;8.98;;
29240;SDS011;16268;49.880;8.648;2023-03-01T15:02:45;15.43;;;8.80;;
29240;SDS011;16268;49.880;8.648;2023-03-01T15:05:13;16.33;;;9.40;;
29240;SDS011;16268;49.880;8.648;2023-03-01T15:07:40;14.90;;;8.90;;
29240;SDS011;16268;49.880;8.648;2023-03-01T15:13:24;14.73;;;9.25;;
29240;SDS011;16268;49.880;8.648;2023-03-01T15:15:51;14.77;;;9.30;;
29240;SDS011;16268;49.880;8.648;2023-03-01T15:18:27;15.95;;;9.20;;
29240;SDS011;16268;49.880;8.648;2023-03-01T15:20:54;15.07;;;8.88;;
29240;SDS011;16268;49.880;8.648;2023-03-01T15:23:29;13.88;;;9.30;;
29240;SDS011;16268;49.880;8.648;2023-03-01T15:25:55;15.90;;;8.90;;
29240;SDS011;16268;49.880;8.648;2023-03-01T15:28:33;17.25;;;9.30;;
29240;SDS011;16268;49.880;8.648;2023-03-01T15:33:37;14.90;;;9.00;;
29240;SDS011;16268;49.880;8.648;2023-03-01T15:36:29;15.70;;;9.15;;
29240;SDS011;16268;49.880;8.648;2023-03-01T15:38:55;14.65;;;8.57;;
29240;SDS011;16268;49.880;8.648;2023-03-01T15:41:28;14.05;;;8.65;;
29240;SDS011;16268;49.880;8.648;2023-03-01T15:43:58;14.23;;;9.10;;
29240;SDS011;16268;49.880;8.648;2023-03-01T15:46:30;13.73;;;8.93;;
29240;SDS011;16268;49.880;8.648;2023-03-01T15:49:23;13.15;;;8.93;;
29240;SDS011;16268;49.880;8.648;2023-03-01T15:51:51;15.02;;;9.15;;
29240;SDS011;16268;49.880;8.648;2023-03-01T15:54:20;14.05;;;8.20;;
29240;SDS011;16268;49.880;8.648;2023-03-01T15:56:48;14.20;;;9.10;;
29240;SDS011;16268;49.880;8.648;2023-03-01T15:59:14;15.35;;;9.20;;
29240;SDS011;16268;49.880;8.648;2023-03-01T16:01:40;12.32;;;8.75;;
29240;SDS011;16268;49.880;8.648;2023-03-01T16:04:09;15.77;;;9.38;;
29240;SDS011;16268;49.880;8.648;2023-03-01T16:06:37;13.45;;;8.82;;
29240;SDS011;16268;49.880;8.648;2023-03-01T16:09:04;13.13;;;9.02;;
29240;SDS011;16268;49.880;8.648;2023-03-01T16:11:30;14.02;;;9.07;;
29240;SDS011;16268;49.880;8.648;2023-03-01T16:13:57;14.07;;;9.00;;
29240;SDS011;16268;49.880;8.648;2023-03-01T16:16:23;15.27;;;9.63;;
29240;SDS011;16268;49.880;8.648;2023-03-01T16:18:49;14.55;;;8.75;;
29240;SDS011;16268;49.880;8.648;2023-03-01T16:21:16;14.20;;;9.02;;
29240;SDS011;16268;49.880;8.648;2023-03-01T16:23:47;15.68;;;9.25;;
29240;SDS011;16268;49.880;8.648;2023-03-01T16:26:12;15.43;;;9.70;;
29240;SDS011;16268;49.880;8.648;2023-03-01T16:28:39;16.38;;;9.75;;
29240;SDS011;16268;49.880;8.648;2023-03-01T16:31:06;15.15;;;9.73;;
29240;SDS011;16268;49.880;8.648;2023-03-01T16:33:31;15.40;;;9.70;;
29240;SDS011;16268;49.880;8.648;2023-03-01T16:35:59;14.32;;;8.82;;
29240;SDS011;16268;49.880;8.648;2023-03-01T16:38:27;15.18;;;9.02;;
29240;SDS011;16268;49.880;8.648;2023-03-01T16:40:53;16.77;;;9.65;;
29240;SDS011;16268;49.880;8.648;2023-03-01T16:43:18;16.42;;;9.77;;
29240;SDS011;16268;49.880;8.648;2023-03-01T16:45:44;17.40;;;10.57;;